createdAt,value
2019-06-07T00:00:38.054Z,101658.40
2019-06-07T00:02:56.406Z,101659.36
2019-06-07T00:05:23.981Z,101655.41
2019-06-07T00:07:51.481Z,101665.11
2019-06-07T00:10:34.881Z,101660.75
2019-06-07T00:12:48.532Z,101659.00
2019-06-07T00:15:24.139Z,101661.16
2019-06-07T00:17:45.780Z,101658.61
2019-06-07T00:20:17.556Z,101662.12
2019-06-07T00:22:43.644Z,101654.69
2019-06-07T00:25:14.804Z,101653.78
2019-06-07T00:27:40.930Z,101654.69
2019-06-07T00:30:33.724Z,101649.02
2019-06-07T00:32:38.242Z,101651.17
2019-06-07T00:35:06.164Z,101650.77
2019-06-07T00:37:34.132Z,101656.47
2019-06-07T00:40:14.182Z,101651.59
2019-06-07T00:42:31.705Z,101644.16
2019-06-07T00:44:59.778Z,101648.13
2019-06-07T00:47:27.663Z,101652.55
2019-06-07T00:49:55.352Z,101649.06
2019-06-07T00:53:11.695Z,101650.41
2019-06-07T00:54:52.578Z,101654.36
2019-06-07T00:57:22.212Z,101652.55
2019-06-07T00:59:50.104Z,101650.27
2019-06-07T01:02:19.242Z,101646.38
2019-06-07T01:04:47.042Z,101641.96
2019-06-07T01:07:17.084Z,101644.59
2019-06-07T01:09:44.689Z,101641.94
2019-06-07T01:12:14.270Z,101647.64
2019-06-07T01:14:42.159Z,101645.06
2019-06-07T01:17:39.184Z,101649.02
2019-06-07T01:19:53.878Z,101646.79
2019-06-07T01:22:23.490Z,101643.75
2019-06-07T01:24:51.521Z,101641.14
2019-06-07T01:27:22.544Z,101639.83
2019-06-07T01:29:49.017Z,101646.81
2019-06-07T01:32:18.762Z,101651.65
2019-06-07T01:34:46.635Z,101649.86
2019-06-07T01:37:14.482Z,101651.70
2019-06-07T01:39:42.225Z,101655.26
2019-06-07T01:42:10.073Z,101660.12
2019-06-07T01:44:37.851Z,101667.56
2019-06-07T01:47:05.825Z,101664.91
2019-06-07T01:49:33.686Z,101662.75
2019-06-07T01:52:01.452Z,101657.81
2019-06-07T01:56:59.132Z,101641.19
2019-06-07T01:59:28.454Z,101645.64
2019-06-07T02:01:57.028Z,101635.12
2019-06-07T02:04:28.988Z,101643.03
2019-06-07T02:06:54.643Z,101641.22
2019-06-07T02:09:23.510Z,101635.98
2019-06-07T02:11:52.165Z,101640.42
2019-06-07T02:14:22.310Z,101633.43
2019-06-07T02:16:50.355Z,101623.75
2019-06-07T02:19:19.426Z,101623.75
2019-06-07T02:21:47.416Z,101625.47
2019-06-07T02:24:15.282Z,101619.77
2019-06-07T02:26:43.149Z,101613.69
2019-06-07T02:29:10.998Z,101616.32
2019-06-07T02:31:39.978Z,101620.32
2019-06-07T02:34:08.083Z,101621.65
2019-06-07T02:36:41.245Z,101622.20
2019-06-07T02:39:06.932Z,101616.11
2019-06-07T02:41:38.770Z,101610.92
2019-06-07T02:44:04.770Z,101611.33
2019-06-07T02:46:44.741Z,101617.09
2019-06-07T02:49:02.650Z,101613.98
2019-06-07T02:51:39.994Z,101609.22
2019-06-07T02:54:00.191Z,101610.13
2019-06-07T02:56:39.067Z,101612.31
2019-06-07T02:58:57.902Z,101613.22
2019-06-07T03:01:28.592Z,101604.50
2019-06-07T03:03:55.456Z,101603.59
2019-06-07T03:06:23.296Z,101603.63
2019-06-07T03:08:51.214Z,101602.77
2019-06-07T03:11:19.162Z,101602.33
2019-06-07T03:13:48.389Z,101602.84
2019-06-07T03:16:20.302Z,101598.92
2019-06-07T03:19:07.872Z,101596.78
2019-06-07T03:21:36.571Z,101597.24
2019-06-07T03:24:04.529Z,101599.90
2019-06-07T03:26:45.589Z,101597.06
2019-06-07T03:29:01.908Z,101601.87
2019-06-07T03:31:41.707Z,101604.11
2019-06-07T03:34:08.658Z,101608.91
2019-06-07T03:36:39.237Z,101602.84
2019-06-07T03:39:07.081Z,101602.46
2019-06-07T03:41:43.867Z,101602.09
2019-06-07T03:44:05.025Z,101604.23
2019-06-07T03:46:37.511Z,101603.82
2019-06-07T03:49:02.663Z,101599.03
2019-06-07T03:51:32.943Z,101603.00
2019-06-07T03:54:00.823Z,101607.84
2019-06-07T03:56:31.343Z,101607.36
2019-06-07T03:58:57.830Z,101602.59
2019-06-07T04:01:32.333Z,101599.95
2019-06-07T04:04:00.990Z,101600.80
2019-06-07T04:06:32.488Z,101600.83
2019-06-07T04:08:58.357Z,101601.75
2019-06-07T04:11:26.420Z,101594.79
2019-06-07T04:13:54.409Z,101601.78
2019-06-07T04:16:22.192Z,101589.89
2019-06-07T04:18:51.166Z,101589.30
2019-06-07T04:21:18.951Z,101581.72
2019-06-07T04:23:46.543Z,101576.46
2019-06-07T04:26:14.251Z,101575.66
2019-06-07T04:29:31.114Z,101584.97
2019-06-07T04:31:11.455Z,101586.31
2019-06-07T04:33:41.256Z,101589.34
2019-06-07T04:36:08.478Z,101591.52
2019-06-07T04:38:39.357Z,101594.12
2019-06-07T04:41:05.472Z,101598.41
2019-06-07T04:43:33.526Z,101600.22
2019-06-07T04:46:04.218Z,101609.86
2019-06-07T04:48:33.334Z,101608.86
2019-06-07T04:51:01.640Z,101608.86
2019-06-07T04:53:30.862Z,101618.95
2019-06-07T04:55:58.987Z,101614.45
2019-06-07T04:58:26.855Z,101609.17
2019-06-07T05:01:02.861Z,101603.41
2019-06-07T05:03:24.007Z,101596.42
2019-06-07T05:05:51.584Z,101600.38
2019-06-07T05:08:28.019Z,101602.13
2019-06-07T05:10:48.577Z,101605.58
2019-06-07T05:13:16.095Z,101607.77
2019-06-07T05:15:43.637Z,101617.37
2019-06-07T05:18:10.698Z,101628.28
2019-06-07T05:20:40.800Z,101623.86
2019-06-07T05:23:07.725Z,101625.45
2019-06-07T05:25:36.473Z,101623.28
2019-06-07T05:28:05.296Z,101616.68
2019-06-07T05:33:04.910Z,101613.94
2019-06-07T05:35:33.121Z,101618.73
2019-06-07T05:38:01.004Z,101611.27
2019-06-07T05:40:34.917Z,101610.31
2019-06-07T05:43:03.191Z,101608.64
2019-06-07T05:45:35.039Z,101612.59
2019-06-07T05:48:02.661Z,101616.13
2019-06-07T05:50:41.382Z,101620.54
2019-06-07T05:52:59.802Z,101619.22
2019-06-07T05:55:27.741Z,101625.34
2019-06-07T05:57:55.402Z,101623.14
2019-06-07T06:00:23.203Z,101630.14
2019-06-07T06:03:03.980Z,101631.91
2019-06-07T06:05:33.406Z,101629.20
2019-06-07T06:07:51.008Z,101630.47
2019-06-07T06:10:19.574Z,101629.59
2019-06-07T06:12:51.638Z,101627.41
2019-06-07T06:15:17.317Z,101624.25
2019-06-07T06:17:49.053Z,101632.91
2019-06-07T06:20:15.134Z,101636.86
2019-06-07T06:22:44.729Z,101636.42
2019-06-07T06:25:48.297Z,101638.07
2019-06-07T06:30:13.878Z,101628.16
2019-06-07T06:32:49.275Z,101628.53
2019-06-07T06:35:11.096Z,101629.41
2019-06-07T06:37:41.921Z,101630.23
2019-06-07T06:40:08.060Z,101630.64
2019-06-07T06:42:35.597Z,101631.17
2019-06-07T06:45:04.046Z,101631.55
2019-06-07T06:47:31.834Z,101631.58
2019-06-07T06:50:01.972Z,101628.91
2019-06-07T06:52:29.961Z,101631.95
2019-06-07T06:55:00.856Z,101631.11
2019-06-07T06:57:27.873Z,101630.15
2019-06-07T06:59:55.556Z,101627.77
2019-06-07T07:02:23.114Z,101627.83
2019-06-07T07:04:52.543Z,101630.03
2019-06-07T07:07:20.138Z,101634.42
2019-06-07T07:09:54.055Z,101636.12
2019-06-07T07:12:17.890Z,101627.28
2019-06-07T07:14:47.886Z,101630.37
2019-06-07T07:17:15.472Z,101632.60
2019-06-07T07:19:47.013Z,101630.84
2019-06-07T07:22:12.882Z,101629.00
2019-06-07T07:24:41.837Z,101632.90
2019-06-07T07:27:09.796Z,101629.77
2019-06-07T07:29:37.584Z,101630.14
2019-06-07T07:32:05.266Z,101633.16
2019-06-07T07:34:36.896Z,101631.36
2019-06-07T07:37:03.952Z,101633.94
2019-06-07T07:39:31.820Z,101642.20
2019-06-07T07:42:18.208Z,101640.00
2019-06-07T07:44:29.288Z,101647.81
2019-06-07T07:46:57.150Z,101653.02
2019-06-07T07:49:24.734Z,101650.92
2019-06-07T07:51:55.069Z,101650.48
2019-06-07T07:54:21.793Z,101649.23
2019-06-07T07:56:51.573Z,101644.77
2019-06-07T07:59:19.349Z,101639.91
2019-06-07T08:01:48.644Z,101640.28
2019-06-07T08:04:16.867Z,101637.21
2019-06-07T08:06:44.489Z,101636.70
2019-06-07T08:09:12.172Z,101629.23
2019-06-07T08:11:39.824Z,101629.23
2019-06-07T08:14:07.415Z,101624.78
2019-06-07T08:16:35.176Z,101622.99
2019-06-07T08:19:04.290Z,101611.53
2019-06-07T08:21:32.606Z,101606.30
2019-06-07T08:24:04.224Z,101608.39
2019-06-07T08:26:30.422Z,101598.63
2019-06-07T08:29:01.920Z,101593.73
2019-06-07T08:31:27.693Z,101592.78
2019-06-07T08:33:58.022Z,101594.55
2019-06-07T08:36:41.324Z,101590.63
2019-06-07T08:39:00.493Z,101587.55
2019-06-07T08:41:26.956Z,101583.11
2019-06-07T08:43:56.835Z,101583.96
2019-06-07T08:46:24.948Z,101587.48
2019-06-07T08:48:54.037Z,101583.45
2019-06-07T08:51:22.875Z,101582.14
2019-06-07T08:54:08.581Z,101583.89
2019-06-07T08:56:20.150Z,101584.27
2019-06-07T08:58:47.660Z,101581.16
2019-06-07T09:01:15.167Z,101563.74
2019-06-07T09:03:42.709Z,101571.86
2019-06-07T09:06:53.986Z,101574.86
2019-06-07T09:08:40.156Z,101565.20
2019-06-07T09:11:11.300Z,101568.20
2019-06-07T09:13:40.075Z,101562.89
2019-06-07T09:16:09.128Z,101561.91
2019-06-07T09:18:43.871Z,101567.92
2019-06-07T09:21:09.620Z,101567.45
2019-06-07T09:23:37.431Z,101565.62
2019-06-07T09:26:15.901Z,101552.36
2019-06-07T09:28:35.001Z,101553.97
2019-06-07T09:31:06.921Z,101540.27
2019-06-07T09:33:32.338Z,101533.19
2019-06-07T09:36:01.643Z,101529.19
2019-06-07T09:38:30.097Z,101525.60
2019-06-07T09:40:59.729Z,101514.61
2019-06-07T09:45:58.235Z,101517.17
2019-06-07T09:49:09.193Z,101511.05
2019-06-07T09:51:03.422Z,101508.86
2019-06-07T09:53:25.433Z,101515.41
2019-06-07T09:55:52.994Z,101512.30
2019-06-07T10:00:50.145Z,101504.23
2019-06-07T10:03:22.208Z,101506.42
2019-06-07T10:05:47.190Z,101499.31
2019-06-07T10:09:14.706Z,101497.52
2019-06-07T10:10:44.201Z,101488.67
2019-06-07T10:13:11.841Z,101493.88
2019-06-07T10:15:39.666Z,101492.08
2019-06-07T10:18:07.336Z,101489.44
2019-06-07T10:20:34.877Z,101484.13
2019-06-07T10:23:03.727Z,101488.89
2019-06-07T10:25:31.435Z,101495.05
2019-06-07T10:28:00.049Z,101488.41
2019-06-07T10:30:27.663Z,101488.80
2019-06-07T10:32:55.229Z,101487.00
2019-06-07T10:35:22.804Z,101490.45
2019-06-07T10:37:50.393Z,101481.61
2019-06-07T10:40:17.993Z,101484.69
2019-06-07T10:42:45.534Z,101482.80
2019-06-07T10:45:13.302Z,101487.13
2019-06-07T10:47:40.881Z,101473.92
2019-06-07T10:50:08.414Z,101472.56
2019-06-07T10:52:36.206Z,101471.24
2019-06-07T10:55:04.578Z,101466.36
2019-06-07T10:57:32.361Z,101468.05
2019-06-07T11:00:00.139Z,101454.40
2019-06-07T11:02:29.192Z,101464.92
2019-06-07T11:04:57.343Z,101449.47
2019-06-07T11:07:25.667Z,101452.91
2019-06-07T11:10:06.088Z,101456.03
2019-06-07T11:12:23.408Z,101457.31
2019-06-07T11:14:51.500Z,101456.27
2019-06-07T11:17:19.233Z,101453.95
2019-06-07T11:19:47.486Z,101450.34
2019-06-07T11:22:16.170Z,101446.38
2019-06-07T11:24:45.108Z,101442.38
2019-06-07T11:27:14.024Z,101443.66
2019-06-07T11:29:42.974Z,101445.38
2019-06-07T11:32:10.808Z,101442.69
2019-06-07T11:34:39.234Z,101433.40
2019-06-07T11:37:07.744Z,101429.79
2019-06-07T11:39:36.560Z,101431.07
2019-06-07T11:42:05.724Z,101409.45
2019-06-07T11:44:33.863Z,101405.44
2019-06-07T11:47:01.674Z,101397.02
2019-06-07T11:49:29.792Z,101389.41
2019-06-07T11:51:58.033Z,101386.23
2019-06-07T11:54:25.635Z,101379.54
2019-06-07T11:56:53.937Z,101377.69
2019-06-07T11:59:21.951Z,101364.39
2019-06-07T12:01:50.176Z,101363.37
2019-06-07T12:04:32.365Z,101365.48
2019-06-07T12:06:47.973Z,101360.11
2019-06-07T12:09:16.922Z,101354.33
2019-06-07T12:11:44.734Z,101348.51
2019-06-07T12:14:12.876Z,101352.42
2019-06-07T12:16:40.504Z,101339.56
2019-06-07T12:19:09.548Z,101329.78
2019-06-07T12:21:37.615Z,101334.63
2019-06-07T12:24:06.094Z,101338.01
2019-06-07T12:26:33.764Z,101326.84
2019-06-07T12:29:01.654Z,101325.28
2019-06-07T12:31:29.304Z,101321.61
2019-06-07T12:33:57.096Z,101320.29
2019-06-07T12:36:24.669Z,101318.52
2019-06-07T12:38:52.186Z,101320.19
2019-06-07T12:41:20.464Z,101317.41
2019-06-07T12:43:47.979Z,101314.13
2019-06-07T12:46:21.131Z,101306.95
2019-06-07T12:48:45.014Z,101300.20
2019-06-07T12:51:13.140Z,101293.53
2019-06-07T12:53:40.794Z,101279.86
2019-06-07T12:56:08.329Z,101277.61
2019-06-07T12:58:39.373Z,101273.59
2019-06-07T13:01:05.467Z,101272.21
2019-06-07T13:03:33.100Z,101276.97
2019-06-07T13:06:00.680Z,101273.87
2019-06-07T13:08:28.354Z,101280.83
2019-06-07T13:10:55.962Z,101281.12
2019-06-07T13:13:24.560Z,101281.51
2019-06-07T13:15:52.347Z,101280.58
2019-06-07T13:18:21.182Z,101279.65
2019-06-07T13:20:49.329Z,101274.73
2019-06-07T13:23:18.789Z,101265.39
2019-06-07T13:25:46.815Z,101271.95
2019-06-07T13:28:14.437Z,101268.31
2019-06-07T13:30:41.996Z,101262.12
2019-06-07T13:33:09.530Z,101260.72
2019-06-07T13:35:37.087Z,101251.34
2019-06-07T13:38:04.618Z,101249.96
2019-06-07T13:40:32.166Z,101252.50
2019-06-07T13:42:59.698Z,101252.44
2019-06-07T13:45:28.013Z,101243.97
2019-06-07T13:47:55.768Z,101250.86
2019-06-07T13:50:24.095Z,101251.59
2019-06-07T13:52:51.785Z,101242.72
2019-06-07T13:55:19.937Z,101241.77
2019-06-07T13:57:47.752Z,101234.16
2019-06-07T14:00:15.268Z,101231.84
2019-06-07T14:02:42.950Z,101225.56
2019-06-07T14:05:10.480Z,101209.13
2019-06-07T14:07:38.004Z,101211.66
2019-06-07T14:10:05.728Z,101201.05
2019-06-07T14:12:33.831Z,101203.97
2019-06-07T14:15:01.394Z,101202.59
2019-06-07T14:17:30.947Z,101195.36
2019-06-07T14:19:58.733Z,101197.80
2019-06-07T14:22:26.888Z,101197.54
2019-06-07T14:24:54.595Z,101185.99
2019-06-07T14:27:23.333Z,101183.22
2019-06-07T14:29:51.326Z,101178.72
2019-06-07T14:32:18.929Z,101168.68
2019-06-07T14:34:46.434Z,101173.25
2019-06-07T14:37:13.993Z,101174.14
2019-06-07T14:39:41.567Z,101168.42
2019-06-07T14:42:10.520Z,101170.08
2019-06-07T14:44:38.140Z,101165.58
2019-06-07T14:47:05.721Z,101157.12
2019-06-07T14:49:34.721Z,101154.08
2019-06-07T14:52:02.449Z,101153.88
2019-06-07T14:54:32.134Z,101146.44
2019-06-07T14:57:02.873Z,101146.73
2019-06-07T14:59:30.342Z,101138.63
2019-06-07T15:01:58.248Z,101136.22
2019-06-07T15:04:26.443Z,101131.19
2019-06-07T15:06:54.125Z,101120.05
2019-06-07T15:09:21.675Z,101119.98
2019-06-07T15:11:49.174Z,101113.48
2019-06-07T15:14:17.025Z,101123.31
2019-06-07T15:16:44.641Z,101122.88
2019-06-07T15:19:12.177Z,101117.08
2019-06-07T15:21:39.704Z,101114.33
2019-06-07T15:24:07.357Z,101109.47
2019-06-07T15:26:34.874Z,101111.98
2019-06-07T15:29:02.415Z,101112.38
2019-06-07T15:31:30.043Z,101110.55
2019-06-07T15:33:57.672Z,101104.87
2019-06-07T15:36:25.313Z,101094.83
2019-06-07T15:38:52.825Z,101087.51
2019-06-07T15:41:20.555Z,101079.18
2019-06-07T15:43:48.141Z,101076.92
2019-06-07T15:46:15.709Z,101067.40
2019-06-07T15:48:43.242Z,101070.66
2019-06-07T15:51:10.792Z,101075.27
2019-06-07T15:53:44.103Z,101068.33
2019-06-07T15:56:07.853Z,101056.14
2019-06-07T15:58:35.483Z,101055.77
2019-06-07T16:01:03.003Z,101055.77
2019-06-07T16:03:31.484Z,101055.92
2019-06-07T16:05:59.320Z,101053.41
2019-06-07T16:08:26.853Z,101056.22
2019-06-07T16:10:54.407Z,101046.55
2019-06-07T16:13:22.033Z,101035.12
2019-06-07T16:15:49.560Z,101038.34
2019-06-07T16:18:17.097Z,101036.78
2019-06-07T16:20:44.627Z,101028.66
2019-06-07T16:23:12.146Z,101031.88
2019-06-07T16:25:40.107Z,101023.19
2019-06-07T16:28:07.809Z,101024.13
2019-06-07T16:30:36.323Z,101017.27
2019-06-07T16:33:03.871Z,101012.59
2019-06-07T16:35:31.552Z,101008.75
2019-06-07T16:37:59.064Z,101008.38
2019-06-07T16:40:26.603Z,101010.95
2019-06-07T16:42:54.145Z,100999.53
2019-06-07T16:45:21.693Z,100996.33
2019-06-07T16:47:49.878Z,100990.84
2019-06-07T16:50:17.586Z,100985.98
2019-06-07T16:52:46.609Z,100978.09
2019-06-07T16:55:14.703Z,100979.76
2019-06-07T16:57:42.928Z,100978.25
2019-06-07T17:00:10.551Z,100978.81
2019-06-07T17:02:38.462Z,100980.52
2019-06-07T17:05:06.621Z,100967.55
2019-06-07T17:07:34.243Z,100969.59
2019-06-07T17:10:02.209Z,100962.66
2019-06-07T17:12:29.923Z,100964.74
2019-06-07T17:14:57.462Z,100960.25
2019-06-07T17:17:25.251Z,100944.89
2019-06-07T17:19:53.013Z,100943.09
2019-06-07T17:22:20.520Z,100942.74
2019-06-07T17:24:48.037Z,100940.02
2019-06-07T17:27:15.792Z,100936.53
2019-06-07T17:29:43.883Z,100938.16
2019-06-07T17:32:11.694Z,100951.20
2019-06-07T17:34:39.884Z,100950.55
2019-06-07T17:37:08.255Z,100956.16
2019-06-07T17:39:35.802Z,100961.31
2019-06-07T17:42:03.346Z,100963.39
2019-06-07T17:44:30.864Z,100965.50
2019-06-07T17:46:58.825Z,100955.25
2019-06-07T17:49:26.694Z,100951.63
2019-06-07T17:51:54.454Z,100947.56
2019-06-07T17:54:22.337Z,100939.95
2019-06-07T17:56:50.543Z,100939.66
2019-06-07T17:59:18.228Z,100939.28
2019-06-07T18:02:06.761Z,100939.16
2019-06-07T18:04:15.368Z,100935.57
2019-06-07T18:06:43.636Z,100940.84
2019-06-07T18:09:14.092Z,100936.03
2019-06-07T18:11:40.770Z,100941.91
2019-06-07T18:14:11.110Z,100937.13
2019-06-07T18:16:38.624Z,100942.95
2019-06-07T18:19:06.117Z,100942.36
2019-06-07T18:21:33.690Z,100949.31
2019-06-07T18:24:01.177Z,100956.77
2019-06-07T18:26:28.782Z,100950.31
2019-06-07T18:28:56.351Z,100951.15
2019-06-07T18:31:23.860Z,100947.38
2019-06-07T18:33:51.399Z,100946.08
2019-06-07T18:36:18.926Z,100934.91
2019-06-07T18:38:46.874Z,100936.45
2019-06-07T18:41:14.595Z,100928.86
2019-06-07T18:43:42.307Z,100919.56
2019-06-07T18:46:10.335Z,100917.86
2019-06-07T18:48:37.829Z,100909.09
2019-06-07T18:51:05.568Z,100909.59
2019-06-07T18:53:33.164Z,100908.88
2019-06-07T18:56:00.702Z,100910.70
2019-06-07T18:58:29.190Z,100913.22
2019-06-07T19:00:57.591Z,100916.98
2019-06-07T19:03:25.350Z,100923.34
2019-06-07T19:05:54.179Z,100924.00
2019-06-07T19:08:21.895Z,100926.73
2019-06-07T19:10:50.623Z,100926.78
2019-06-07T19:13:18.394Z,100938.73
2019-06-07T19:15:45.956Z,100947.89
2019-06-07T19:18:13.506Z,100951.34
2019-06-07T19:20:41.015Z,100953.34
2019-06-07T19:23:09.249Z,100951.40
2019-06-07T19:25:36.739Z,100956.86
2019-06-07T19:28:04.301Z,100951.84
2019-06-07T19:30:32.082Z,100962.22
2019-06-07T19:32:59.802Z,100963.31
2019-06-07T19:35:28.054Z,100966.67
2019-06-07T19:37:55.911Z,100967.83
2019-06-07T19:40:23.493Z,100962.39
2019-06-07T19:42:52.158Z,100955.28
2019-06-07T19:45:30.809Z,100958.14
2019-06-07T19:47:49.373Z,100961.56
2019-06-07T19:50:16.872Z,100980.50
2019-06-07T19:52:44.393Z,100993.33
2019-06-07T19:55:11.871Z,100994.06
2019-06-07T19:57:39.354Z,100993.63
2019-06-07T20:00:13.465Z,100992.61
2019-06-07T20:02:36.738Z,100992.36
2019-06-07T20:05:06.807Z,100998.59
2019-06-07T20:07:34.131Z,101002.70
2019-06-07T20:10:02.915Z,101009.33
2019-06-07T20:12:30.593Z,101013.91
2019-06-07T20:15:18.928Z,101031.33
2019-06-07T20:17:27.542Z,101052.06
2019-06-07T20:19:56.216Z,101071.55
2019-06-07T20:22:24.093Z,101070.73
2019-06-07T20:24:51.719Z,101072.80
2019-06-07T20:27:19.233Z,101089.82
2019-06-07T20:29:46.754Z,101082.77
2019-06-07T20:32:14.306Z,101064.55
2019-06-07T20:34:44.732Z,101025.41
2019-06-07T20:37:11.895Z,100970.37
2019-06-07T20:39:39.593Z,100981.41
2019-06-07T20:42:07.890Z,100951.52
2019-06-07T20:44:35.735Z,100940.19
2019-06-07T20:47:04.190Z,100926.18
2019-06-07T20:49:31.875Z,100919.69
2019-06-07T20:52:00.450Z,100940.93
2019-06-07T20:54:28.326Z,100948.70
2019-06-07T20:56:56.194Z,100956.39
2019-06-07T20:59:24.063Z,100977.23
2019-06-07T21:01:51.718Z,100963.19
2019-06-07T21:04:19.487Z,100948.86
2019-06-07T21:06:47.352Z,100946.73
2019-06-07T21:09:14.882Z,100954.79
2019-06-07T21:11:43.297Z,100967.42
2019-06-07T21:14:11.157Z,100965.24
2019-06-07T21:16:38.917Z,100984.30
2019-06-07T21:19:06.581Z,100977.23
2019-06-07T21:21:34.402Z,100983.13
2019-06-07T21:24:02.564Z,100989.86
2019-06-07T21:26:30.491Z,101009.16
2019-06-07T21:28:58.353Z,101021.12
2019-06-07T21:31:26.193Z,101028.33
2019-06-07T21:33:53.927Z,101023.59
2019-06-07T21:36:21.709Z,101024.48
2019-06-07T21:38:49.405Z,101034.23
2019-06-07T21:41:17.071Z,101040.95
2019-06-07T21:43:44.728Z,101043.66
2019-06-07T21:46:19.949Z,101061.78
2019-06-07T21:48:42.307Z,101070.64
2019-06-07T21:51:10.696Z,101080.41
2019-06-07T21:53:38.652Z,101085.75
2019-06-07T21:56:07.052Z,101090.62
2019-06-07T21:58:35.100Z,101077.00
2019-06-07T22:01:09.974Z,101071.44
2019-06-07T22:03:38.114Z,101067.53
2019-06-07T22:06:07.500Z,101072.97
2019-06-07T22:08:35.529Z,101093.69
2019-06-07T22:11:03.782Z,101109.22
2019-06-07T22:13:31.651Z,101116.31
2019-06-07T22:15:59.377Z,101142.86
2019-06-07T22:18:27.147Z,101152.56
2019-06-07T22:20:55.011Z,101160.48
2019-06-07T22:23:22.875Z,101168.03
2019-06-07T22:25:50.686Z,101161.47
2019-06-07T22:28:18.528Z,101176.94
2019-06-07T22:30:46.576Z,101172.58
2019-06-07T22:33:15.126Z,101168.28
2019-06-07T22:35:42.991Z,101161.72
2019-06-07T22:38:10.792Z,101169.26
2019-06-07T22:40:38.646Z,101184.35
2019-06-07T22:43:07.524Z,101164.19
2019-06-07T22:45:35.490Z,101125.86
2019-06-07T22:48:03.346Z,101113.62
2019-06-07T22:50:31.254Z,101095.66
2019-06-07T22:52:59.017Z,101094.45
2019-06-07T22:55:26.823Z,101111.23
2019-06-07T22:57:56.195Z,101104.30
2019-06-07T23:00:24.965Z,101112.66
2019-06-07T23:02:52.805Z,101120.20
2019-06-07T23:05:20.490Z,101111.45
2019-06-07T23:07:48.160Z,101071.95
2019-06-07T23:10:17.192Z,101033.30
2019-06-07T23:12:45.320Z,100986.64
2019-06-07T23:15:13.360Z,100984.09
2019-06-07T23:17:41.064Z,100985.86
2019-06-07T23:20:09.663Z,100992.13
2019-06-07T23:22:37.602Z,100984.66
2019-06-07T23:25:05.489Z,100990.81
2019-06-07T23:27:34.671Z,101021.24
2019-06-07T23:30:08.345Z,101060.00
2019-06-07T23:32:31.984Z,101082.06
2019-06-07T23:34:59.909Z,101101.00
2019-06-07T23:37:27.773Z,101117.39
2019-06-07T23:39:55.535Z,101141.61
2019-06-07T23:42:23.297Z,101132.84
2019-06-07T23:44:51.172Z,101131.63
2019-06-07T23:47:20.464Z,101126.89
2019-06-07T23:49:48.844Z,101116.33
2019-06-07T23:52:17.929Z,101118.97
2019-06-07T23:54:45.883Z,101109.77
2019-06-07T23:57:13.991Z,101097.44
2019-06-07T23:59:41.842Z,101093.98
